sensor_id;sensor_type;location;lat;lon;timestamp;P1;durP1;ratioP1;P2;durP2;ratioP2
7444;SDS011;3764;48.126;11.594;2022-12-07T00:01:35;20.38;;;10.50;;
7444;SDS011;3764;48.126;11.594;2022-12-07T00:04:04;17.05;;;10.60;;
7444;SDS011;3764;48.126;11.594;2022-12-07T00:06:32;16.98;;;11.65;;
7444;SDS011;3764;48.126;11.594;2022-12-07T00:09:00;14.13;;;10.07;;
7444;SDS011;3764;48.126;11.594;2022-12-07T00:11:27;16.60;;;10.50;;
7444;SDS011;3764;48.126;11.594;2022-12-07T00:13:56;13.57;;;10.45;;
7444;SDS011;3764;48.126;11.594;2022-12-07T00:16:25;13.45;;;9.13;;
7444;SDS011;3764;48.126;11.594;2022-12-07T00:18:54;14.10;;;9.55;;
7444;SDS011;3764;48.126;11.594;2022-12-07T00:21:22;12.85;;;9.38;;
7444;SDS011;3764;48.126;11.594;2022-12-07T00:23:51;10.68;;;8.60;;
7444;SDS011;3764;48.126;11.594;2022-12-07T00:26:20;12.88;;;9.07;;
7444;SDS011;3764;48.126;11.594;2022-12-07T00:28:49;13.30;;;9.73;;
7444;SDS011;3764;48.126;11.594;2022-12-07T00:31:21;16.33;;;9.40;;
7444;SDS011;3764;48.126;11.594;2022-12-07T00:33:51;13.52;;;9.35;;
7444;SDS011;3764;48.126;11.594;2022-12-07T00:36:19;13.93;;;9.48;;
7444;SDS011;3764;48.126;11.594;2022-12-07T00:38:47;13.30;;;9.38;;
7444;SDS011;3764;48.126;11.594;2022-12-07T00:41:15;11.13;;;9.05;;
7444;SDS011;3764;48.126;11.594;2022-12-07T00:43:44;9.93;;;8.25;;
7444;SDS011;3764;48.126;11.594;2022-12-07T00:46:12;13.45;;;8.60;;
7444;SDS011;3764;48.126;11.594;2022-12-07T00:48:42;11.95;;;9.77;;
7444;SDS011;3764;48.126;11.594;2022-12-07T00:51:09;12.70;;;9.52;;
7444;SDS011;3764;48.126;11.594;2022-12-07T00:53:37;13.43;;;8.50;;
7444;SDS011;3764;48.126;11.594;2022-12-07T00:56:05;16.90;;;9.40;;
7444;SDS011;3764;48.126;11.594;2022-12-07T00:58:33;12.20;;;8.55;;
7444;SDS011;3764;48.126;11.594;2022-12-07T01:01:00;12.45;;;9.20;;
7444;SDS011;3764;48.126;11.594;2022-12-07T01:03:29;12.57;;;9.45;;
7444;SDS011;3764;48.126;11.594;2022-12-07T01:05:57;11.82;;;8.90;;
7444;SDS011;3764;48.126;11.594;2022-12-07T01:08:25;13.43;;;9.60;;
7444;SDS011;3764;48.126;11.594;2022-12-07T01:10:57;15.30;;;8.38;;
7444;SDS011;3764;48.126;11.594;2022-12-07T01:13:25;10.70;;;8.25;;
7444;SDS011;3764;48.126;11.594;2022-12-07T01:15:55;10.75;;;8.10;;
7444;SDS011;3764;48.126;11.594;2022-12-07T01:18:23;11.40;;;7.88;;
7444;SDS011;3764;48.126;11.594;2022-12-07T01:20:58;12.40;;;7.80;;
7444;SDS011;3764;48.126;11.594;2022-12-07T01:23:26;11.02;;;7.78;;
7444;SDS011;3764;48.126;11.594;2022-12-07T01:25:54;8.60;;;6.88;;
7444;SDS011;3764;48.126;11.594;2022-12-07T01:28:22;10.20;;;7.40;;
7444;SDS011;3764;48.126;11.594;2022-12-07T01:30:54;10.32;;;7.50;;
7444;SDS011;3764;48.126;11.594;2022-12-07T01:33:22;10.00;;;7.32;;
7444;SDS011;3764;48.126;11.594;2022-12-07T01:35:49;12.07;;;7.85;;
7444;SDS011;3764;48.126;11.594;2022-12-07T01:38:18;11.65;;;7.80;;
7444;SDS011;3764;48.126;11.594;2022-12-07T01:40:45;11.70;;;7.72;;
7444;SDS011;3764;48.126;11.594;2022-12-07T01:43:19;12.05;;;8.25;;
7444;SDS011;3764;48.126;11.594;2022-12-07T01:45:47;9.48;;;6.50;;
7444;SDS011;3764;48.126;11.594;2022-12-07T01:48:14;9.18;;;7.60;;
7444;SDS011;3764;48.126;11.594;2022-12-07T01:50:44;11.25;;;7.80;;
7444;SDS011;3764;48.126;11.594;2022-12-07T01:53:13;10.40;;;7.78;;
7444;SDS011;3764;48.126;11.594;2022-12-07T01:55:44;10.10;;;7.10;;
7444;SDS011;3764;48.126;11.594;2022-12-07T01:58:13;11.95;;;7.90;;
7444;SDS011;3764;48.126;11.594;2022-12-07T02:00:42;11.35;;;8.20;;
7444;SDS011;3764;48.126;11.594;2022-12-07T02:03:11;10.27;;;7.65;;
7444;SDS011;3764;48.126;11.594;2022-12-07T02:05:42;10.75;;;8.10;;
7444;SDS011;3764;48.126;11.594;2022-12-07T02:08:10;12.35;;;8.73;;
7444;SDS011;3764;48.126;11.594;2022-12-07T02:10:39;11.68;;;8.05;;
7444;SDS011;3764;48.126;11.594;2022-12-07T02:13:08;13.32;;;9.35;;
7444;SDS011;3764;48.126;11.594;2022-12-07T02:15:42;10.77;;;7.78;;
7444;SDS011;3764;48.126;11.594;2022-12-07T02:18:22;9.40;;;6.90;;
7444;SDS011;3764;48.126;11.594;2022-12-07T02:20:58;13.40;;;8.70;;
7444;SDS011;3764;48.126;11.594;2022-12-07T02:23:40;9.50;;;7.20;;
7444;SDS011;3764;48.126;11.594;2022-12-07T02:29:27;10.82;;;8.15;;
7444;SDS011;3764;48.126;11.594;2022-12-07T02:32:01;12.93;;;9.32;;
7444;SDS011;3764;48.126;11.594;2022-12-07T02:34:36;11.80;;;9.00;;
7444;SDS011;3764;48.126;11.594;2022-12-07T02:37:10;12.15;;;8.68;;
7444;SDS011;3764;48.126;11.594;2022-12-07T02:39:48;14.52;;;8.50;;
7444;SDS011;3764;48.126;11.594;2022-12-07T02:42:19;14.10;;;9.27;;
7444;SDS011;3764;48.126;11.594;2022-12-07T02:44:53;10.73;;;7.63;;
7444;SDS011;3764;48.126;11.594;2022-12-07T02:47:21;12.48;;;8.10;;
7444;SDS011;3764;48.126;11.594;2022-12-07T02:49:51;10.52;;;7.55;;
7444;SDS011;3764;48.126;11.594;2022-12-07T02:52:18;12.75;;;9.18;;
7444;SDS011;3764;48.126;11.594;2022-12-07T02:54:45;12.75;;;8.75;;
7444;SDS011;3764;48.126;11.594;2022-12-07T02:57:16;10.70;;;8.27;;
7444;SDS011;3764;48.126;11.594;2022-12-07T02:59:59;11.75;;;8.00;;
7444;SDS011;3764;48.126;11.594;2022-12-07T03:02:32;11.52;;;9.20;;
7444;SDS011;3764;48.126;11.594;2022-12-07T03:05:11;12.75;;;8.35;;
7444;SDS011;3764;48.126;11.594;2022-12-07T03:07:49;11.77;;;8.40;;
7444;SDS011;3764;48.126;11.594;2022-12-07T03:10:23;10.45;;;7.28;;
7444;SDS011;3764;48.126;11.594;2022-12-07T03:12:57;12.10;;;7.75;;
7444;SDS011;3764;48.126;11.594;2022-12-07T03:15:33;11.32;;;7.68;;
7444;SDS011;3764;48.126;11.594;2022-12-07T03:18:05;12.00;;;8.57;;
7444;SDS011;3764;48.126;11.594;2022-12-07T03:20:34;11.30;;;8.93;;
7444;SDS011;3764;48.126;11.594;2022-12-07T03:23:06;11.70;;;8.82;;
7444;SDS011;3764;48.126;11.594;2022-12-07T03:25:37;13.27;;;9.63;;
7444;SDS011;3764;48.126;11.594;2022-12-07T03:28:07;9.50;;;7.38;;
7444;SDS011;3764;48.126;11.594;2022-12-07T03:30:39;14.50;;;11.05;;
7444;SDS011;3764;48.126;11.594;2022-12-07T03:33:11;13.32;;;9.05;;
7444;SDS011;3764;48.126;11.594;2022-12-07T03:35:45;12.00;;;8.60;;
7444;SDS011;3764;48.126;11.594;2022-12-07T03:38:17;13.57;;;8.60;;
7444;SDS011;3764;48.126;11.594;2022-12-07T03:40:49;12.00;;;8.50;;
7444;SDS011;3764;48.126;11.594;2022-12-07T03:43:20;12.77;;;9.93;;
7444;SDS011;3764;48.126;11.594;2022-12-07T03:45:51;13.45;;;9.10;;
7444;SDS011;3764;48.126;11.594;2022-12-07T03:48:24;14.38;;;9.68;;
7444;SDS011;3764;48.126;11.594;2022-12-07T03:50:55;12.75;;;8.70;;
7444;SDS011;3764;48.126;11.594;2022-12-07T03:53:30;11.52;;;8.65;;
7444;SDS011;3764;48.126;11.594;2022-12-07T03:56:02;11.98;;;8.40;;
7444;SDS011;3764;48.126;11.594;2022-12-07T03:58:30;11.73;;;9.05;;
7444;SDS011;3764;48.126;11.594;2022-12-07T04:01:00;14.73;;;10.52;;
7444;SDS011;3764;48.126;11.594;2022-12-07T04:03:28;13.02;;;9.35;;
7444;SDS011;3764;48.126;11.594;2022-12-07T04:05:55;13.13;;;10.25;;
7444;SDS011;3764;48.126;11.594;2022-12-07T04:08:23;16.17;;;11.85;;
7444;SDS011;3764;48.126;11.594;2022-12-07T04:10:50;14.05;;;9.55;;
7444;SDS011;3764;48.126;11.594;2022-12-07T04:13:17;12.20;;;8.30;;
7444;SDS011;3764;48.126;11.594;2022-12-07T04:15:44;13.40;;;9.18;;
7444;SDS011;3764;48.126;11.594;2022-12-07T04:18:12;13.23;;;8.93;;
7444;SDS011;3764;48.126;11.594;2022-12-07T04:20:39;16.17;;;10.43;;
7444;SDS011;3764;48.126;11.594;2022-12-07T04:23:06;14.48;;;10.35;;
7444;SDS011;3764;48.126;11.594;2022-12-07T04:25:33;13.55;;;9.52;;
7444;SDS011;3764;48.126;11.594;2022-12-07T04:28:00;15.45;;;10.50;;
7444;SDS011;3764;48.126;11.594;2022-12-07T04:30:27;13.88;;;9.73;;
7444;SDS011;3764;48.126;11.594;2022-12-07T04:32:54;14.80;;;10.20;;
7444;SDS011;3764;48.126;11.594;2022-12-07T04:35:23;15.15;;;11.45;;
7444;SDS011;3764;48.126;11.594;2022-12-07T04:37:50;15.35;;;9.57;;
7444;SDS011;3764;48.126;11.594;2022-12-07T04:40:17;14.07;;;10.00;;
7444;SDS011;3764;48.126;11.594;2022-12-07T04:42:44;12.90;;;10.20;;
7444;SDS011;3764;48.126;11.594;2022-12-07T04:45:11;13.75;;;9.90;;
7444;SDS011;3764;48.126;11.594;2022-12-07T04:47:38;16.58;;;10.02;;
7444;SDS011;3764;48.126;11.594;2022-12-07T04:50:05;15.07;;;10.80;;
7444;SDS011;3764;48.126;11.594;2022-12-07T04:52:35;18.98;;;10.95;;
7444;SDS011;3764;48.126;11.594;2022-12-07T04:55:02;16.20;;;11.27;;
7444;SDS011;3764;48.126;11.594;2022-12-07T04:57:29;12.85;;;9.40;;
7444;SDS011;3764;48.126;11.594;2022-12-07T04:59:56;14.85;;;10.88;;
7444;SDS011;3764;48.126;11.594;2022-12-07T05:02:23;16.55;;;10.82;;
7444;SDS011;3764;48.126;11.594;2022-12-07T05:04:50;14.15;;;9.57;;
7444;SDS011;3764;48.126;11.594;2022-12-07T05:07:17;15.82;;;10.77;;
7444;SDS011;3764;48.126;11.594;2022-12-07T05:09:46;17.80;;;10.40;;
7444;SDS011;3764;48.126;11.594;2022-12-07T05:12:13;13.68;;;9.65;;
7444;SDS011;3764;48.126;11.594;2022-12-07T05:14:40;15.48;;;9.80;;
7444;SDS011;3764;48.126;11.594;2022-12-07T05:17:07;14.88;;;9.93;;
7444;SDS011;3764;48.126;11.594;2022-12-07T05:19:34;13.45;;;8.98;;
7444;SDS011;3764;48.126;11.594;2022-12-07T05:22:01;14.80;;;8.98;;
7444;SDS011;3764;48.126;11.594;2022-12-07T05:24:28;14.93;;;10.07;;
7444;SDS011;3764;48.126;11.594;2022-12-07T05:26:56;17.02;;;9.68;;
7444;SDS011;3764;48.126;11.594;2022-12-07T05:29:23;15.13;;;9.20;;
7444;SDS011;3764;48.126;11.594;2022-12-07T05:31:50;13.40;;;8.85;;
7444;SDS011;3764;48.126;11.594;2022-12-07T05:34:18;13.00;;;8.50;;
7444;SDS011;3764;48.126;11.594;2022-12-07T05:36:45;12.27;;;8.77;;
7444;SDS011;3764;48.126;11.594;2022-12-07T05:39:12;10.32;;;8.20;;
7444;SDS011;3764;48.126;11.594;2022-12-07T05:41:39;15.30;;;9.73;;
7444;SDS011;3764;48.126;11.594;2022-12-07T05:44:25;14.93;;;9.93;;
7444;SDS011;3764;48.126;11.594;2022-12-07T05:46:52;13.88;;;8.93;;
7444;SDS011;3764;48.126;11.594;2022-12-07T05:49:19;13.65;;;9.55;;
7444;SDS011;3764;48.126;11.594;2022-12-07T05:51:46;14.57;;;8.50;;
7444;SDS011;3764;48.126;11.594;2022-12-07T05:54:13;10.27;;;7.90;;
7444;SDS011;3764;48.126;11.594;2022-12-07T05:56:40;9.77;;;8.25;;
7444;SDS011;3764;48.126;11.594;2022-12-07T05:59:08;16.00;;;10.65;;
7444;SDS011;3764;48.126;11.594;2022-12-07T06:01:50;16.60;;;9.75;;
7444;SDS011;3764;48.126;11.594;2022-12-07T06:04:18;13.65;;;10.57;;
7444;SDS011;3764;48.126;11.594;2022-12-07T06:06:46;14.25;;;10.32;;
7444;SDS011;3764;48.126;11.594;2022-12-07T06:09:14;12.90;;;8.95;;
7444;SDS011;3764;48.126;11.594;2022-12-07T06:11:41;14.90;;;10.05;;
7444;SDS011;3764;48.126;11.594;2022-12-07T06:14:25;14.73;;;9.50;;
7444;SDS011;3764;48.126;11.594;2022-12-07T06:16:54;14.68;;;9.70;;
7444;SDS011;3764;48.126;11.594;2022-12-07T06:19:21;14.50;;;10.10;;
7444;SDS011;3764;48.126;11.594;2022-12-07T06:21:48;12.32;;;9.55;;
7444;SDS011;3764;48.126;11.594;2022-12-07T06:24:15;15.45;;;10.90;;
7444;SDS011;3764;48.126;11.594;2022-12-07T06:26:44;13.68;;;10.07;;
7444;SDS011;3764;48.126;11.594;2022-12-07T06:29:11;14.77;;;9.32;;
7444;SDS011;3764;48.126;11.594;2022-12-07T06:31:39;15.18;;;10.32;;
7444;SDS011;3764;48.126;11.594;2022-12-07T06:34:09;12.25;;;9.55;;
7444;SDS011;3764;48.126;11.594;2022-12-07T06:36:37;14.10;;;9.65;;
7444;SDS011;3764;48.126;11.594;2022-12-07T06:39:04;15.05;;;9.82;;
7444;SDS011;3764;48.126;11.594;2022-12-07T06:41:34;14.45;;;10.38;;
7444;SDS011;3764;48.126;11.594;2022-12-07T06:44:02;15.95;;;10.55;;
7444;SDS011;3764;48.126;11.594;2022-12-07T06:46:29;14.65;;;9.75;;
7444;SDS011;3764;48.126;11.594;2022-12-07T06:48:56;13.57;;;10.07;;
7444;SDS011;3764;48.126;11.594;2022-12-07T06:51:25;16.38;;;10.63;;
7444;SDS011;3764;48.126;11.594;2022-12-07T06:53:52;16.20;;;11.20;;
7444;SDS011;3764;48.126;11.594;2022-12-07T06:56:19;15.25;;;10.85;;
7444;SDS011;3764;48.126;11.594;2022-12-07T06:58:47;14.98;;;10.30;;
7444;SDS011;3764;48.126;11.594;2022-12-07T07:01:16;14.35;;;10.25;;
7444;SDS011;3764;48.126;11.594;2022-12-07T07:03:45;17.02;;;10.77;;
7444;SDS011;3764;48.126;11.594;2022-12-07T07:06:13;12.95;;;9.18;;
7444;SDS011;3764;48.126;11.594;2022-12-07T07:08:41;15.32;;;9.68;;
7444;SDS011;3764;48.126;11.594;2022-12-07T07:11:09;16.05;;;11.15;;
7444;SDS011;3764;48.126;11.594;2022-12-07T07:13:36;13.13;;;9.75;;
7444;SDS011;3764;48.126;11.594;2022-12-07T07:16:04;15.43;;;9.32;;
7444;SDS011;3764;48.126;11.594;2022-12-07T07:18:32;14.90;;;9.65;;
7444;SDS011;3764;48.126;11.594;2022-12-07T07:20:59;13.57;;;9.43;;
7444;SDS011;3764;48.126;11.594;2022-12-07T07:23:27;15.05;;;9.55;;
7444;SDS011;3764;48.126;11.594;2022-12-07T07:25:55;11.57;;;9.68;;
7444;SDS011;3764;48.126;11.594;2022-12-07T07:28:22;14.88;;;10.43;;
7444;SDS011;3764;48.126;11.594;2022-12-07T07:30:50;15.32;;;11.43;;
7444;SDS011;3764;48.126;11.594;2022-12-07T07:33:17;15.32;;;10.50;;
7444;SDS011;3764;48.126;11.594;2022-12-07T07:35:44;14.05;;;10.35;;
7444;SDS011;3764;48.126;11.594;2022-12-07T07:38:11;14.52;;;9.88;;
7444;SDS011;3764;48.126;11.594;2022-12-07T07:40:38;13.93;;;9.90;;
7444;SDS011;3764;48.126;11.594;2022-12-07T07:43:06;16.05;;;10.73;;
7444;SDS011;3764;48.126;11.594;2022-12-07T07:45:33;14.60;;;10.02;;
7444;SDS011;3764;48.126;11.594;2022-12-07T07:48:00;15.02;;;9.75;;
7444;SDS011;3764;48.126;11.594;2022-12-07T07:50:27;18.15;;;11.60;;
7444;SDS011;3764;48.126;11.594;2022-12-07T07:52:56;17.60;;;12.20;;
7444;SDS011;3764;48.126;11.594;2022-12-07T07:55:23;15.57;;;10.27;;
7444;SDS011;3764;48.126;11.594;2022-12-07T07:57:50;16.67;;;10.00;;
7444;SDS011;3764;48.126;11.594;2022-12-07T08:00:19;15.95;;;11.05;;
7444;SDS011;3764;48.126;11.594;2022-12-07T08:02:46;16.33;;;10.93;;
7444;SDS011;3764;48.126;11.594;2022-12-07T08:05:13;20.33;;;11.57;;
7444;SDS011;3764;48.126;11.594;2022-12-07T08:07:41;18.40;;;11.75;;
7444;SDS011;3764;48.126;11.594;2022-12-07T08:10:09;17.20;;;12.27;;
7444;SDS011;3764;48.126;11.594;2022-12-07T08:12:38;17.20;;;11.13;;
7444;SDS011;3764;48.126;11.594;2022-12-07T08:15:28;16.35;;;12.18;;
7444;SDS011;3764;48.126;11.594;2022-12-07T08:17:57;20.05;;;11.85;;
7444;SDS011;3764;48.126;11.594;2022-12-07T08:20:24;19.02;;;11.57;;
7444;SDS011;3764;48.126;11.594;2022-12-07T08:22:52;24.58;;;11.85;;
7444;SDS011;3764;48.126;11.594;2022-12-07T08:25:19;17.52;;;11.00;;
7444;SDS011;3764;48.126;11.594;2022-12-07T08:27:47;18.23;;;12.10;;
7444;SDS011;3764;48.126;11.594;2022-12-07T08:30:14;18.30;;;11.10;;
7444;SDS011;3764;48.126;11.594;2022-12-07T08:32:43;19.27;;;11.93;;
7444;SDS011;3764;48.126;11.594;2022-12-07T08:35:11;19.35;;;14.13;;
7444;SDS011;3764;48.126;11.594;2022-12-07T08:37:38;20.10;;;12.88;;
7444;SDS011;3764;48.126;11.594;2022-12-07T08:40:06;16.58;;;11.25;;
7444;SDS011;3764;48.126;11.594;2022-12-07T08:42:34;17.63;;;11.23;;
7444;SDS011;3764;48.126;11.594;2022-12-07T08:45:05;21.70;;;12.43;;
7444;SDS011;3764;48.126;11.594;2022-12-07T08:47:34;16.20;;;11.57;;
7444;SDS011;3764;48.126;11.594;2022-12-07T08:50:05;19.60;;;12.43;;
7444;SDS011;3764;48.126;11.594;2022-12-07T08:52:35;23.35;;;12.60;;
7444;SDS011;3764;48.126;11.594;2022-12-07T08:55:03;18.08;;;11.95;;
7444;SDS011;3764;48.126;11.594;2022-12-07T08:57:32;22.30;;;12.32;;
7444;SDS011;3764;48.126;11.594;2022-12-07T09:00:01;18.88;;;12.80;;
7444;SDS011;3764;48.126;11.594;2022-12-07T09:02:29;15.40;;;11.07;;
7444;SDS011;3764;48.126;11.594;2022-12-07T09:04:57;17.15;;;11.93;;
7444;SDS011;3764;48.126;11.594;2022-12-07T09:07:25;18.52;;;10.77;;
7444;SDS011;3764;48.126;11.594;2022-12-07T09:09:53;18.83;;;11.70;;
7444;SDS011;3764;48.126;11.594;2022-12-07T09:12:21;20.52;;;12.07;;
7444;SDS011;3764;48.126;11.594;2022-12-07T09:14:48;16.90;;;11.48;;
7444;SDS011;3764;48.126;11.594;2022-12-07T09:17:15;16.92;;;11.55;;
7444;SDS011;3764;48.126;11.594;2022-12-07T09:19:42;17.05;;;10.93;;
7444;SDS011;3764;48.126;11.594;2022-12-07T09:22:09;15.55;;;10.95;;
7444;SDS011;3764;48.126;11.594;2022-12-07T09:24:38;16.55;;;10.93;;
7444;SDS011;3764;48.126;11.594;2022-12-07T09:27:05;17.15;;;10.77;;
7444;SDS011;3764;48.126;11.594;2022-12-07T09:29:32;18.05;;;11.50;;
7444;SDS011;3764;48.126;11.594;2022-12-07T09:31:59;18.80;;;10.63;;
7444;SDS011;3764;48.126;11.594;2022-12-07T09:34:26;17.63;;;12.57;;
7444;SDS011;3764;48.126;11.594;2022-12-07T09:36:56;13.80;;;10.30;;
7444;SDS011;3764;48.126;11.594;2022-12-07T09:39:23;17.88;;;12.30;;
7444;SDS011;3764;48.126;11.594;2022-12-07T09:41:51;19.80;;;12.52;;
7444;SDS011;3764;48.126;11.594;2022-12-07T09:44:20;15.57;;;9.65;;
7444;SDS011;3764;48.126;11.594;2022-12-07T09:46:50;15.82;;;10.27;;
7444;SDS011;3764;48.126;11.594;2022-12-07T09:49:18;17.42;;;10.73;;
7444;SDS011;3764;48.126;11.594;2022-12-07T09:51:47;17.02;;;10.75;;
7444;SDS011;3764;48.126;11.594;2022-12-07T09:54:25;15.20;;;10.05;;
7444;SDS011;3764;48.126;11.594;2022-12-07T09:56:53;16.20;;;9.65;;
7444;SDS011;3764;48.126;11.594;2022-12-07T09:59:20;14.95;;;10.15;;
7444;SDS011;3764;48.126;11.594;2022-12-07T10:01:48;14.50;;;9.73;;
7444;SDS011;3764;48.126;11.594;2022-12-07T10:04:17;15.43;;;9.15;;
7444;SDS011;3764;48.126;11.594;2022-12-07T10:06:46;14.77;;;9.80;;
7444;SDS011;3764;48.126;11.594;2022-12-07T10:09:14;13.85;;;9.40;;
7444;SDS011;3764;48.126;11.594;2022-12-07T10:12:00;12.38;;;8.52;;
7444;SDS011;3764;48.126;11.594;2022-12-07T10:14:28;11.93;;;8.48;;
7444;SDS011;3764;48.126;11.594;2022-12-07T10:16:57;12.50;;;8.27;;
7444;SDS011;3764;48.126;11.594;2022-12-07T10:19:25;18.98;;;9.05;;
7444;SDS011;3764;48.126;11.594;2022-12-07T10:22:01;11.98;;;8.25;;
7444;SDS011;3764;48.126;11.594;2022-12-07T10:24:30;11.60;;;7.57;;
7444;SDS011;3764;48.126;11.594;2022-12-07T10:26:58;14.80;;;9.35;;
7444;SDS011;3764;48.126;11.594;2022-12-07T10:29:28;11.10;;;7.63;;
7444;SDS011;3764;48.126;11.594;2022-12-07T10:31:57;12.05;;;8.93;;
7444;SDS011;3764;48.126;11.594;2022-12-07T10:34:26;11.73;;;7.68;;
7444;SDS011;3764;48.126;11.594;2022-12-07T10:37:07;11.90;;;8.25;;
7444;SDS011;3764;48.126;11.594;2022-12-07T10:39:42;12.88;;;7.70;;
7444;SDS011;3764;48.126;11.594;2022-12-07T10:42:19;11.82;;;8.02;;
7444;SDS011;3764;48.126;11.594;2022-12-07T10:44:47;10.68;;;7.40;;
7444;SDS011;3764;48.126;11.594;2022-12-07T10:47:18;13.80;;;7.45;;
7444;SDS011;3764;48.126;11.594;2022-12-07T10:50:07;11.18;;;7.10;;
7444;SDS011;3764;48.126;11.594;2022-12-07T10:52:46;10.07;;;7.90;;
7444;SDS011;3764;48.126;11.594;2022-12-07T10:55:25;8.20;;;6.00;;
7444;SDS011;3764;48.126;11.594;2022-12-07T11:01:04;13.13;;;7.38;;
7444;SDS011;3764;48.126;11.594;2022-12-07T11:03:45;10.60;;;6.50;;
7444;SDS011;3764;48.126;11.594;2022-12-07T11:06:25;10.95;;;6.40;;
7444;SDS011;3764;48.126;11.594;2022-12-07T11:09:02;10.82;;;7.15;;
7444;SDS011;3764;48.126;11.594;2022-12-07T11:11:49;8.13;;;5.95;;
7444;SDS011;3764;48.126;11.594;2022-12-07T11:14:26;10.63;;;7.63;;
7444;SDS011;3764;48.126;11.594;2022-12-07T11:16:59;10.30;;;6.60;;
7444;SDS011;3764;48.126;11.594;2022-12-07T11:19:40;9.50;;;6.93;;
7444;SDS011;3764;48.126;11.594;2022-12-07T11:22:17;8.52;;;6.35;;
7444;SDS011;3764;48.126;11.594;2022-12-07T11:24:50;7.82;;;5.57;;
7444;SDS011;3764;48.126;11.594;2022-12-07T11:27:26;12.18;;;7.38;;
7444;SDS011;3764;48.126;11.594;2022-12-07T11:30:13;8.75;;;6.25;;
7444;SDS011;3764;48.126;11.594;2022-12-07T11:33:09;11.30;;;6.43;;
7444;SDS011;3764;48.126;11.594;2022-12-07T11:35:49;8.30;;;5.90;;
7444;SDS011;3764;48.126;11.594;2022-12-07T11:38:33;10.05;;;6.80;;
7444;SDS011;3764;48.126;11.594;2022-12-07T11:41:09;12.00;;;7.22;;
7444;SDS011;3764;48.126;11.594;2022-12-07T11:43:56;10.48;;;6.50;;
7444;SDS011;3764;48.126;11.594;2022-12-07T11:46:34;8.55;;;5.28;;
7444;SDS011;3764;48.126;11.594;2022-12-07T11:49:13;7.60;;;5.82;;
7444;SDS011;3764;48.126;11.594;2022-12-07T11:51:45;7.43;;;5.30;;
7444;SDS011;3764;48.126;11.594;2022-12-07T11:54:19;7.30;;;5.32;;
7444;SDS011;3764;48.126;11.594;2022-12-07T11:56:51;9.40;;;5.53;;
7444;SDS011;3764;48.126;11.594;2022-12-07T11:59:23;6.70;;;5.13;;
7444;SDS011;3764;48.126;11.594;2022-12-07T12:01:58;9.52;;;5.85;;
7444;SDS011;3764;48.126;11.594;2022-12-07T12:04:42;8.85;;;5.32;;
7444;SDS011;3764;48.126;11.594;2022-12-07T12:07:17;8.80;;;5.75;;
7444;SDS011;3764;48.126;11.594;2022-12-07T12:09:48;8.10;;;6.18;;
7444;SDS011;3764;48.126;11.594;2022-12-07T12:12:40;7.38;;;4.93;;
7444;SDS011;3764;48.126;11.594;2022-12-07T12:15:24;8.73;;;6.45;;
7444;SDS011;3764;48.126;11.594;2022-12-07T12:18:07;10.68;;;5.22;;
7444;SDS011;3764;48.126;11.594;2022-12-07T12:20:46;7.50;;;5.25;;
7444;SDS011;3764;48.126;11.594;2022-12-07T12:23:18;6.57;;;5.03;;
7444;SDS011;3764;48.126;11.594;2022-12-07T12:25:48;8.93;;;5.40;;
7444;SDS011;3764;48.126;11.594;2022-12-07T12:28:20;9.75;;;5.78;;
7444;SDS011;3764;48.126;11.594;2022-12-07T12:31:07;8.57;;;5.72;;
7444;SDS011;3764;48.126;11.594;2022-12-07T12:33:43;8.73;;;5.55;;
7444;SDS011;3764;48.126;11.594;2022-12-07T12:36:23;8.90;;;5.75;;
7444;SDS011;3764;48.126;11.594;2022-12-07T12:39:07;11.55;;;7.30;;
7444;SDS011;3764;48.126;11.594;2022-12-07T12:41:54;8.80;;;6.03;;
7444;SDS011;3764;48.126;11.594;2022-12-07T12:44:40;8.98;;;6.55;;
7444;SDS011;3764;48.126;11.594;2022-12-07T12:47:40;15.93;;;6.43;;
7444;SDS011;3764;48.126;11.594;2022-12-07T12:50:30;9.00;;;5.93;;
7444;SDS011;3764;48.126;11.594;2022-12-07T13:02:14;8.80;;;6.95;;
7444;SDS011;3764;48.126;11.594;2022-12-07T13:04:50;10.43;;;7.47;;
7444;SDS011;3764;48.126;11.594;2022-12-07T13:10:36;13.73;;;7.97;;
7444;SDS011;3764;48.126;11.594;2022-12-07T13:13:30;11.85;;;7.95;;
7444;SDS011;3764;48.126;11.594;2022-12-07T13:25:07;11.43;;;7.65;;
7444;SDS011;3764;48.126;11.594;2022-12-07T13:27:38;9.05;;;6.68;;
7444;SDS011;3764;48.126;11.594;2022-12-07T13:30:11;10.43;;;6.93;;
7444;SDS011;3764;48.126;11.594;2022-12-07T13:32:41;10.50;;;7.85;;
7444;SDS011;3764;48.126;11.594;2022-12-07T13:35:31;10.02;;;7.22;;
7444;SDS011;3764;48.126;11.594;2022-12-07T13:38:01;11.20;;;7.10;;
7444;SDS011;3764;48.126;11.594;2022-12-07T13:40:32;15.32;;;7.22;;
7444;SDS011;3764;48.126;11.594;2022-12-07T13:42:59;17.23;;;7.82;;
7444;SDS011;3764;48.126;11.594;2022-12-07T13:45:29;10.57;;;7.00;;
7444;SDS011;3764;48.126;11.594;2022-12-07T13:48:19;9.95;;;7.20;;
7444;SDS011;3764;48.126;11.594;2022-12-07T13:50:54;10.88;;;7.68;;
7444;SDS011;3764;48.126;11.594;2022-12-07T13:53:23;14.65;;;8.52;;
7444;SDS011;3764;48.126;11.594;2022-12-07T13:55:54;9.80;;;7.30;;
7444;SDS011;3764;48.126;11.594;2022-12-07T13:58:22;11.90;;;7.10;;
7444;SDS011;3764;48.126;11.594;2022-12-07T14:00:49;11.82;;;7.85;;
7444;SDS011;3764;48.126;11.594;2022-12-07T14:03:30;8.68;;;6.50;;
7444;SDS011;3764;48.126;11.594;2022-12-07T14:08:50;10.30;;;6.43;;
7444;SDS011;3764;48.126;11.594;2022-12-07T14:11:33;10.27;;;6.70;;
7444;SDS011;3764;48.126;11.594;2022-12-07T14:14:01;9.75;;;6.65;;
7444;SDS011;3764;48.126;11.594;2022-12-07T14:16:29;8.90;;;6.45;;
7444;SDS011;3764;48.126;11.594;2022-12-07T14:18:58;9.93;;;6.68;;
7444;SDS011;3764;48.126;11.594;2022-12-07T14:21:27;11.25;;;7.18;;
7444;SDS011;3764;48.126;11.594;2022-12-07T14:26:47;9.88;;;6.28;;
7444;SDS011;3764;48.126;11.594;2022-12-07T14:29:18;8.95;;;5.65;;
7444;SDS011;3764;48.126;11.594;2022-12-07T14:31:56;9.57;;;7.03;;
7444;SDS011;3764;48.126;11.594;2022-12-07T14:34:25;11.57;;;7.60;;
7444;SDS011;3764;48.126;11.594;2022-12-07T14:36:52;9.77;;;5.90;;
7444;SDS011;3764;48.126;11.594;2022-12-07T14:39:19;11.48;;;7.60;;
7444;SDS011;3764;48.126;11.594;2022-12-07T14:41:48;9.60;;;6.38;;
7444;SDS011;3764;48.126;11.594;2022-12-07T14:44:18;9.65;;;6.22;;
7444;SDS011;3764;48.126;11.594;2022-12-07T14:46:47;12.60;;;6.93;;
7444;SDS011;3764;48.126;11.594;2022-12-07T14:49:14;16.05;;;7.13;;
7444;SDS011;3764;48.126;11.594;2022-12-07T14:51:41;11.77;;;6.82;;
7444;SDS011;3764;48.126;11.594;2022-12-07T14:54:12;9.65;;;6.63;;
7444;SDS011;3764;48.126;11.594;2022-12-07T14:56:42;9.48;;;6.75;;
7444;SDS011;3764;48.126;11.594;2022-12-07T14:59:12;11.45;;;7.60;;
7444;SDS011;3764;48.126;11.594;2022-12-07T15:01:39;10.85;;;7.20;;
7444;SDS011;3764;48.126;11.594;2022-12-07T15:04:06;12.02;;;7.78;;
7444;SDS011;3764;48.126;11.594;2022-12-07T15:06:33;10.85;;;6.55;;
7444;SDS011;3764;48.126;11.594;2022-12-07T15:09:00;10.45;;;6.78;;
7444;SDS011;3764;48.126;11.594;2022-12-07T15:11:27;12.32;;;6.63;;
7444;SDS011;3764;48.126;11.594;2022-12-07T15:13:54;12.20;;;7.55;;
7444;SDS011;3764;48.126;11.594;2022-12-07T15:16:41;12.10;;;7.22;;
7444;SDS011;3764;48.126;11.594;2022-12-07T15:19:12;9.98;;;7.03;;
7444;SDS011;3764;48.126;11.594;2022-12-07T15:21:41;11.65;;;7.55;;
7444;SDS011;3764;48.126;11.594;2022-12-07T15:24:09;13.02;;;8.32;;
7444;SDS011;3764;48.126;11.594;2022-12-07T15:26:36;13.35;;;9.30;;
7444;SDS011;3764;48.126;11.594;2022-12-07T15:29:04;13.27;;;7.60;;
7444;SDS011;3764;48.126;11.594;2022-12-07T15:31:32;13.15;;;8.20;;
7444;SDS011;3764;48.126;11.594;2022-12-07T15:34:01;11.02;;;7.00;;
7444;SDS011;3764;48.126;11.594;2022-12-07T15:36:28;11.80;;;8.05;;
7444;SDS011;3764;48.126;11.594;2022-12-07T15:38:57;13.02;;;7.82;;
7444;SDS011;3764;48.126;11.594;2022-12-07T15:41:25;12.70;;;9.20;;